Main page
METAR-TAF:

METAR-TAF

Airports :

Oil platform

K14-fa-1c, Netherlands

latitude: 53-16-10N, longitude: 3-37-40E, elevation: 28 m

Current weather observation

The report was made 34 minutes ago, at 06:25 UTC
Wind 19 kt from the Northwest, varying between Southwest and North
Temperature 7°C
Humidity 87%
Pressure 1014 hPa
Visibility: 9000 m
Few clouds at a height of 1100 ft
Scattered clouds at a height of 1600 ft
Broken clouds at a height of 2900 ft
heavy drizzle, rain

METAR: EHKV 170625Z AUTO 31019KT 230V010 9000 +DZRA FEW011 SCT016 BKN029 07/05 Q1014

Time: 07:59 (06:59 UTC)


TAF: missing

Weather observations and forecasts of more than 4000 airports (METAR and TAF reports).

The available stations are represented by yellow and red dots on the map.

Hover mouse over dot to see the name of the station.

Then click to see weather observations and forecasts.

To change the map : click on the green buttons with a black cross to zoom in, on the green button with a dash to zoom out, or on the green arrows for adjacent maps.


METAR-TAF: